sensor_id;sensor_type;location;lat;lon;timestamp;P1;durP1;ratioP1;P2;durP2;ratioP2
67164;SDS011;54093;50.014;19.984;2023-03-03T00:07:10;30.42;;;16.08;;
67164;SDS011;54093;50.014;19.984;2023-03-03T00:16:34;36.15;;;18.58;;
67164;SDS011;54093;50.014;19.984;2023-03-03T00:25:58;36.95;;;15.90;;
67164;SDS011;54093;50.014;19.984;2023-03-03T00:35:24;30.27;;;15.80;;
67164;SDS011;54093;50.014;19.984;2023-03-03T00:44:59;36.03;;;14.75;;
67164;SDS011;54093;50.014;19.984;2023-03-03T00:54:20;31.65;;;15.77;;
67164;SDS011;54093;50.014;19.984;2023-03-03T01:03:41;34.03;;;18.13;;
67164;SDS011;54093;50.014;19.984;2023-03-03T01:13:03;36.40;;;14.68;;
67164;SDS011;54093;50.014;19.984;2023-03-03T01:22:24;27.15;;;13.15;;
67164;SDS011;54093;50.014;19.984;2023-03-03T01:31:45;27.25;;;14.35;;
67164;SDS011;54093;50.014;19.984;2023-03-03T01:41:06;15.57;;;10.93;;
67164;SDS011;54093;50.014;19.984;2023-03-03T02:00:01;32.10;;;12.73;;
67164;SDS011;54093;50.014;19.984;2023-03-03T02:29:06;34.85;;;16.70;;
67164;SDS011;54093;50.014;19.984;2023-03-03T02:47:59;44.55;;;18.85;;
67164;SDS011;54093;50.014;19.984;2023-03-03T02:57:20;36.95;;;18.35;;
67164;SDS011;54093;50.014;19.984;2023-03-03T03:06:42;36.20;;;17.40;;
67164;SDS011;54093;50.014;19.984;2023-03-03T03:16:03;22.92;;;13.38;;
67164;SDS011;54093;50.014;19.984;2023-03-03T03:25:25;28.10;;;13.43;;
67164;SDS011;54093;50.014;19.984;2023-03-03T03:34:46;35.20;;;19.58;;
67164;SDS011;54093;50.014;19.984;2023-03-03T03:44:07;31.23;;;15.55;;
67164;SDS011;54093;50.014;19.984;2023-03-03T03:53:28;24.65;;;13.10;;
67164;SDS011;54093;50.014;19.984;2023-03-03T04:02:49;21.23;;;13.38;;
67164;SDS011;54093;50.014;19.984;2023-03-03T04:12:10;20.35;;;12.23;;
67164;SDS011;54093;50.014;19.984;2023-03-03T04:21:32;20.55;;;10.77;;
67164;SDS011;54093;50.014;19.984;2023-03-03T04:30:53;41.55;;;19.58;;
67164;SDS011;54093;50.014;19.984;2023-03-03T04:40:14;23.10;;;12.43;;
67164;SDS011;54093;50.014;19.984;2023-03-03T04:49:35;51.65;;;21.10;;
67164;SDS011;54093;50.014;19.984;2023-03-03T04:58:57;10.48;;;9.48;;
67164;SDS011;54093;50.014;19.984;2023-03-03T05:08:18;45.75;;;19.23;;
67164;SDS011;54093;50.014;19.984;2023-03-03T05:17:40;52.70;;;20.55;;
67164;SDS011;54093;50.014;19.984;2023-03-03T05:27:01;25.23;;;12.68;;
67164;SDS011;54093;50.014;19.984;2023-03-03T05:36:23;25.95;;;13.68;;
67164;SDS011;54093;50.014;19.984;2023-03-03T05:45:44;33.83;;;18.63;;
67164;SDS011;54093;50.014;19.984;2023-03-03T05:55:05;32.40;;;15.27;;
67164;SDS011;54093;50.014;19.984;2023-03-03T06:04:27;58.13;;;23.40;;
67164;SDS011;54093;50.014;19.984;2023-03-03T06:13:48;60.00;;;25.30;;
67164;SDS011;54093;50.014;19.984;2023-03-03T06:23:09;35.30;;;16.23;;
67164;SDS011;54093;50.014;19.984;2023-03-03T06:32:30;83.60;;;34.65;;
67164;SDS011;54093;50.014;19.984;2023-03-03T06:41:51;29.95;;;15.80;;
67164;SDS011;54093;50.014;19.984;2023-03-03T06:51:26;44.22;;;20.23;;
67164;SDS011;54093;50.014;19.984;2023-03-03T07:00:56;54.95;;;23.90;;
67164;SDS011;54093;50.014;19.984;2023-03-03T07:19:45;62.03;;;24.15;;
67164;SDS011;54093;50.014;19.984;2023-03-03T07:29:15;30.65;;;17.45;;
67164;SDS011;54093;50.014;19.984;2023-03-03T07:38:58;94.45;;;40.20;;
67164;SDS011;54093;50.014;19.984;2023-03-03T07:48:25;52.28;;;20.95;;
67164;SDS011;54093;50.014;19.984;2023-03-03T08:07:36;80.43;;;31.10;;
67164;SDS011;54093;50.014;19.984;2023-03-03T08:16:58;55.22;;;20.83;;
67164;SDS011;54093;50.014;19.984;2023-03-03T08:26:24;84.35;;;33.92;;
67164;SDS011;54093;50.014;19.984;2023-03-03T08:35:46;44.70;;;21.98;;
67164;SDS011;54093;50.014;19.984;2023-03-03T08:45:07;86.30;;;37.28;;
67164;SDS011;54093;50.014;19.984;2023-03-03T08:54:28;56.67;;;25.50;;
67164;SDS011;54093;50.014;19.984;2023-03-03T09:03:49;77.18;;;32.92;;
67164;SDS011;54093;50.014;19.984;2023-03-03T09:13:15;50.03;;;24.55;;
67164;SDS011;54093;50.014;19.984;2023-03-03T09:22:38;64.10;;;26.88;;
67164;SDS011;54093;50.014;19.984;2023-03-03T09:32:00;75.95;;;34.50;;
67164;SDS011;54093;50.014;19.984;2023-03-03T10:01:14;74.65;;;32.60;;
67164;SDS011;54093;50.014;19.984;2023-03-03T10:11:03;83.68;;;38.58;;
67164;SDS011;54093;50.014;19.984;2023-03-03T10:49:42;60.55;;;25.25;;
67164;SDS011;54093;50.014;19.984;2023-03-03T11:28:55;73.60;;;30.48;;
67164;SDS011;54093;50.014;19.984;2023-03-03T11:38:29;81.10;;;32.57;;
67164;SDS011;54093;50.014;19.984;2023-03-03T11:57:39;67.85;;;28.98;;
67164;SDS011;54093;50.014;19.984;2023-03-03T13:04:55;36.22;;;13.07;;
67164;SDS011;54093;50.014;19.984;2023-03-03T13:24:23;31.40;;;12.70;;
67164;SDS011;54093;50.014;19.984;2023-03-03T13:33:55;30.65;;;12.90;;
67164;SDS011;54093;50.014;19.984;2023-03-03T13:43:42;36.50;;;14.50;;
67164;SDS011;54093;50.014;19.984;2023-03-03T14:12:08;29.85;;;14.00;;
67164;SDS011;54093;50.014;19.984;2023-03-03T14:21:37;38.20;;;16.27;;
67164;SDS011;54093;50.014;19.984;2023-03-03T14:40:46;27.50;;;12.35;;
67164;SDS011;54093;50.014;19.984;2023-03-03T14:50:26;24.58;;;11.90;;
67164;SDS011;54093;50.014;19.984;2023-03-03T15:09:48;16.60;;;8.57;;
67164;SDS011;54093;50.014;19.984;2023-03-03T16:07:30;30.77;;;14.10;;
67164;SDS011;54093;50.014;19.984;2023-03-03T16:36:45;18.00;;;9.60;;
67164;SDS011;54093;50.014;19.984;2023-03-03T17:25:02;23.98;;;10.50;;
67164;SDS011;54093;50.014;19.984;2023-03-03T18:12:54;21.77;;;11.27;;
67164;SDS011;54093;50.014;19.984;2023-03-03T18:22:40;15.77;;;9.30;;
67164;SDS011;54093;50.014;19.984;2023-03-03T18:32:23;16.80;;;9.13;;
67164;SDS011;54093;50.014;19.984;2023-03-03T18:42:45;29.63;;;13.50;;
67164;SDS011;54093;50.014;19.984;2023-03-03T19:01:33;24.27;;;12.20;;
67164;SDS011;54093;50.014;19.984;2023-03-03T19:11:01;16.58;;;10.35;;
67164;SDS011;54093;50.014;19.984;2023-03-03T19:20:22;24.38;;;11.88;;
67164;SDS011;54093;50.014;19.984;2023-03-03T19:48:39;18.80;;;8.88;;
67164;SDS011;54093;50.014;19.984;2023-03-03T20:27:02;19.73;;;10.63;;
67164;SDS011;54093;50.014;19.984;2023-03-03T20:36:34;25.05;;;10.95;;
67164;SDS011;54093;50.014;19.984;2023-03-03T20:46:15;15.68;;;6.38;;
67164;SDS011;54093;50.014;19.984;2023-03-03T20:55:50;19.85;;;10.77;;
67164;SDS011;54093;50.014;19.984;2023-03-03T21:14:36;10.45;;;6.68;;
67164;SDS011;54093;50.014;19.984;2023-03-03T21:23:57;24.02;;;11.05;;
67164;SDS011;54093;50.014;19.984;2023-03-03T21:43:34;18.45;;;11.10;;
67164;SDS011;54093;50.014;19.984;2023-03-03T21:52:56;18.90;;;9.57;;
67164;SDS011;54093;50.014;19.984;2023-03-03T22:02:17;30.88;;;13.60;;
67164;SDS011;54093;50.014;19.984;2023-03-03T22:11:38;46.55;;;17.50;;
67164;SDS011;54093;50.014;19.984;2023-03-03T22:20:59;27.80;;;11.70;;
67164;SDS011;54093;50.014;19.984;2023-03-03T22:30:20;35.42;;;12.93;;
67164;SDS011;54093;50.014;19.984;2023-03-03T22:39:41;29.15;;;10.88;;
67164;SDS011;54093;50.014;19.984;2023-03-03T22:49:02;40.63;;;16.92;;
67164;SDS011;54093;50.014;19.984;2023-03-03T22:58:23;21.98;;;12.15;;
67164;SDS011;54093;50.014;19.984;2023-03-03T23:07:47;21.38;;;11.43;;
67164;SDS011;54093;50.014;19.984;2023-03-03T23:17:07;13.98;;;8.65;;
67164;SDS011;54093;50.014;19.984;2023-03-03T23:26:28;14.32;;;8.55;;
67164;SDS011;54093;50.014;19.984;2023-03-03T23:35:49;25.90;;;10.77;;
67164;SDS011;54093;50.014;19.984;2023-03-03T23:45:11;17.63;;;9.45;;
67164;SDS011;54093;50.014;19.984;2023-03-03T23:54:32;25.60;;;9.77;;
